sensor_id;sensor_type;location;lat;lon;timestamp;P1;durP1;ratioP1;P2;durP2;ratioP2
12635;SDS011;6383;50.830;7.210;2022-07-22T21:32:05;16.45;;;12.32;;
12635;SDS011;6383;50.830;7.210;2022-07-22T21:34:33;12.68;;;11.38;;
12635;SDS011;6383;50.830;7.210;2022-07-22T21:37:01;13.10;;;11.35;;
12635;SDS011;6383;50.830;7.210;2022-07-22T21:39:30;13.52;;;12.23;;
12635;SDS011;6383;50.830;7.210;2022-07-22T21:41:59;11.57;;;10.45;;
12635;SDS011;6383;50.830;7.210;2022-07-22T21:44:29;11.75;;;10.55;;
12635;SDS011;6383;50.830;7.210;2022-07-22T21:46:58;12.40;;;11.20;;
12635;SDS011;6383;50.830;7.210;2022-07-22T21:49:28;12.40;;;11.10;;
12635;SDS011;6383;50.830;7.210;2022-07-22T21:51:57;11.93;;;10.88;;
12635;SDS011;6383;50.830;7.210;2022-07-22T21:54:27;12.18;;;10.88;;
12635;SDS011;6383;50.830;7.210;2022-07-22T21:56:56;12.07;;;10.87;;
12635;SDS011;6383;50.830;7.210;2022-07-22T21:59:26;11.95;;;10.95;;
12635;SDS011;6383;50.830;7.210;2022-07-22T22:01:57;12.75;;;10.82;;
12635;SDS011;6383;50.830;7.210;2022-07-22T22:04:27;11.65;;;10.57;;
12635;SDS011;6383;50.830;7.210;2022-07-22T22:06:59;12.02;;;10.88;;
12635;SDS011;6383;50.830;7.210;2022-07-22T22:09:29;11.93;;;10.82;;
12635;SDS011;6383;50.830;7.210;2022-07-22T22:11:59;12.60;;;11.40;;
12635;SDS011;6383;50.830;7.210;2022-07-22T22:14:28;11.88;;;10.70;;
12635;SDS011;6383;50.830;7.210;2022-07-22T22:16:57;12.00;;;10.80;;
12635;SDS011;6383;50.830;7.210;2022-07-22T22:19:32;12.35;;;11.07;;
12635;SDS011;6383;50.830;7.210;2022-07-22T22:22:01;12.10;;;10.90;;
12635;SDS011;6383;50.830;7.210;2022-07-22T22:24:30;11.55;;;10.38;;
12635;SDS011;6383;50.830;7.210;2022-07-22T22:26:59;11.55;;;10.15;;
12635;SDS011;6383;50.830;7.210;2022-07-22T22:29:28;11.73;;;10.48;;
12635;SDS011;6383;50.830;7.210;2022-07-22T22:31:58;11.90;;;10.70;;
12635;SDS011;6383;50.830;7.210;2022-07-22T22:34:27;12.13;;;10.82;;
12635;SDS011;6383;50.830;7.210;2022-07-22T22:36:57;11.52;;;10.43;;
12635;SDS011;6383;50.830;7.210;2022-07-22T22:39:27;12.68;;;11.45;;
12635;SDS011;6383;50.830;7.210;2022-07-22T22:41:56;12.13;;;11.00;;
12635;SDS011;6383;50.830;7.210;2022-07-22T22:44:25;12.07;;;10.93;;
12635;SDS011;6383;50.830;7.210;2022-07-22T22:46:54;12.18;;;10.90;;
12635;SDS011;6383;50.830;7.210;2022-07-22T22:49:23;13.32;;;11.05;;
12635;SDS011;6383;50.830;7.210;2022-07-22T22:51:52;11.82;;;10.75;;
12635;SDS011;6383;50.830;7.210;2022-07-22T22:54:23;11.55;;;10.40;;
12635;SDS011;6383;50.830;7.210;2022-07-22T22:56:54;12.15;;;10.95;;
12635;SDS011;6383;50.830;7.210;2022-07-22T22:59:24;13.05;;;11.75;;
12635;SDS011;6383;50.830;7.210;2022-07-22T23:01:53;13.40;;;12.00;;
12635;SDS011;6383;50.830;7.210;2022-07-22T23:04:22;13.75;;;12.40;;
12635;SDS011;6383;50.830;7.210;2022-07-22T23:06:51;13.13;;;11.73;;
12635;SDS011;6383;50.830;7.210;2022-07-22T23:09:20;13.70;;;12.35;;
12635;SDS011;6383;50.830;7.210;2022-07-22T23:11:51;13.60;;;12.18;;
12635;SDS011;6383;50.830;7.210;2022-07-22T23:14:20;13.57;;;12.18;;
12635;SDS011;6383;50.830;7.210;2022-07-22T23:16:49;13.38;;;12.07;;
12635;SDS011;6383;50.830;7.210;2022-07-22T23:19:18;15.05;;;12.00;;
12635;SDS011;6383;50.830;7.210;2022-07-22T23:21:47;13.45;;;12.25;;
12635;SDS011;6383;50.830;7.210;2022-07-22T23:24:17;14.57;;;13.10;;
12635;SDS011;6383;50.830;7.210;2022-07-22T23:26:46;14.23;;;12.57;;
12635;SDS011;6383;50.830;7.210;2022-07-22T23:29:16;14.75;;;13.18;;
12635;SDS011;6383;50.830;7.210;2022-07-22T23:31:46;14.48;;;12.70;;
12635;SDS011;6383;50.830;7.210;2022-07-22T23:34:15;14.07;;;12.60;;
12635;SDS011;6383;50.830;7.210;2022-07-22T23:36:44;14.07;;;12.70;;
12635;SDS011;6383;50.830;7.210;2022-07-22T23:39:13;14.57;;;13.10;;
12635;SDS011;6383;50.830;7.210;2022-07-22T23:41:42;14.70;;;13.20;;
12635;SDS011;6383;50.830;7.210;2022-07-22T23:44:11;15.20;;;13.70;;
12635;SDS011;6383;50.830;7.210;2022-07-22T23:46:42;15.30;;;13.85;;
12635;SDS011;6383;50.830;7.210;2022-07-22T23:49:11;14.73;;;13.25;;
12635;SDS011;6383;50.830;7.210;2022-07-22T23:51:40;15.13;;;13.55;;
12635;SDS011;6383;50.830;7.210;2022-07-22T23:54:09;16.88;;;13.57;;
12635;SDS011;6383;50.830;7.210;2022-07-22T23:56:39;14.95;;;13.43;;
12635;SDS011;6383;50.830;7.210;2022-07-22T23:59:08;15.00;;;13.20;;
